Terminal Aerodrome Forecast
Issued by NWS Charleston, WV

Current Version | Previous Version | Text Only | Print | Product List | Glossary On
Versions: 1 2 3 4 5 6 7 8 9 10 11 12 13 14 15 16 17 18 19 20 21 22 23 24 25 26 27 28
000
FTUS41 KRLX 201700
TAFHTS
TAF
KHTS 201738Z 2018/2118 22008KT P6SM BKN040
     FM210000 25006KT P6SM SCT050
     FM210200 26005KT 6SM BR BKN100
     FM210600 00000KT 4SM -SHRA BR SCT012 BKN045
     FM210800 VRB03KT 3SM SHRA BR VCTS BKN025CB
     FM211200 22003KT 3SM -RA BR BKN050
     FM211400 23005KT P6SM BKN080=

USA.gov is the U.S. government's official web portal to all federal, state and local government web resources and services.